createdAt,value
2017-04-17T00:00:30.939Z,89.10
2017-04-17T00:01:29.859Z,89.40
2017-04-17T00:02:28.816Z,90.00
2017-04-17T00:03:28.685Z,89.90
2017-04-17T00:04:27.591Z,89.10
2017-04-17T00:05:26.487Z,89.10
2017-04-17T00:06:26.147Z,89.10
2017-04-17T00:07:25.067Z,89.20
2017-04-17T00:08:23.994Z,89.20
2017-04-17T00:09:22.916Z,89.20
2017-04-17T00:10:22.572Z,89.10
2017-04-17T00:11:21.472Z,89.00
2017-04-17T00:12:20.399Z,89.30
2017-04-17T00:13:19.317Z,89.00
2017-04-17T00:14:18.220Z,89.10
2017-04-17T00:15:17.923Z,89.10
2017-04-17T00:16:16.826Z,89.20
2017-04-17T00:17:16.512Z,89.00
2017-04-17T00:18:15.420Z,89.30
2017-04-17T00:19:14.403Z,89.30
2017-04-17T00:20:13.295Z,89.80
2017-04-17T00:21:12.322Z,89.20
2017-04-17T00:22:11.295Z,88.90
2017-04-17T00:23:10.244Z,88.70
2017-04-17T00:24:09.125Z,89.00
2017-04-17T00:25:08.025Z,89.00
2017-04-17T00:26:06.919Z,89.00
2017-04-17T00:27:05.839Z,89.00
2017-04-17T00:28:04.740Z,89.10
2017-04-17T00:29:03.762Z,89.20
2017-04-17T00:30:02.651Z,88.80
2017-04-17T00:31:01.552Z,88.70
2017-04-17T00:32:00.463Z,88.90
2017-04-17T00:32:59.368Z,89.10
2017-04-17T00:33:58.281Z,89.10
2017-04-17T00:34:57.180Z,89.20
2017-04-17T00:35:56.093Z,89.10
2017-04-17T00:36:55.015Z,88.50
2017-04-17T00:37:53.971Z,88.70
2017-04-17T00:38:52.904Z,88.80
2017-04-17T00:39:52.548Z,88.70
2017-04-17T00:40:51.443Z,88.70
2017-04-17T00:41:50.340Z,88.40
2017-04-17T00:42:49.262Z,88.30
2017-04-17T00:43:48.168Z,88.60
2017-04-17T00:44:47.121Z,89.50
2017-04-17T00:45:46.767Z,88.90
2017-04-17T00:46:45.735Z,88.20
2017-04-17T00:47:44.631Z,87.80
2017-04-17T00:48:43.624Z,87.80
2017-04-17T00:49:42.509Z,87.80
2017-04-17T00:50:41.416Z,87.80
2017-04-17T00:51:41.056Z,87.80
2017-04-17T00:52:39.935Z,87.90
2017-04-17T00:53:38.835Z,87.90
2017-04-17T00:54:37.771Z,87.80
2017-04-17T00:55:36.671Z,87.60
2017-04-17T00:56:35.611Z,87.40
2017-04-17T00:57:35.263Z,87.60
2017-04-17T00:58:34.168Z,87.70
2017-04-17T00:59:33.075Z,87.60
2017-04-17T01:00:31.975Z,87.70
2017-04-17T01:01:30.885Z,87.80
2017-04-17T01:02:29.827Z,87.90
2017-04-17T01:03:28.723Z,88.20
2017-04-17T01:04:27.600Z,87.50
2017-04-17T01:05:26.503Z,87.50
2017-04-17T01:06:25.406Z,87.30
2017-04-17T01:07:24.286Z,87.40
2017-04-17T01:08:23.244Z,87.30
2017-04-17T01:09:22.173Z,87.40
2017-04-17T01:10:21.079Z,87.70
2017-04-17T01:11:20.016Z,87.80
2017-04-17T01:12:19.469Z,87.70
2017-04-17T01:13:18.377Z,87.90
2017-04-17T01:14:17.280Z,88.00
2017-04-17T01:15:16.191Z,88.20
2017-04-17T01:16:15.088Z,88.40
2017-04-17T01:17:13.991Z,88.60
2017-04-17T01:18:12.886Z,88.80
2017-04-17T01:19:11.813Z,89.20
2017-04-17T01:20:10.751Z,89.40
2017-04-17T01:21:09.628Z,89.60
2017-04-17T01:22:08.535Z,89.80
2017-04-17T01:23:07.424Z,89.70
2017-04-17T01:24:06.313Z,89.70
2017-04-17T01:25:05.215Z,89.70
2017-04-17T01:26:04.163Z,89.90
2017-04-17T01:27:03.099Z,90.00
2017-04-17T01:28:01.979Z,90.00
2017-04-17T01:29:00.885Z,90.00
2017-04-17T01:29:59.772Z,90.00
2017-04-17T01:30:58.665Z,90.00
2017-04-17T01:31:58.312Z,90.10
2017-04-17T01:32:57.204Z,89.90
2017-04-17T01:33:56.103Z,89.80
2017-04-17T01:34:55.005Z,89.90
2017-04-17T01:35:54.672Z,89.80
2017-04-17T01:36:53.563Z,90.00
2017-04-17T01:37:52.486Z,89.70
2017-04-17T01:38:51.417Z,89.90
2017-04-17T01:39:50.391Z,89.80
2017-04-17T01:40:49.291Z,89.70
2017-04-17T01:41:48.199Z,89.60
2017-04-17T01:42:47.859Z,89.40
2017-04-17T01:43:46.820Z,89.50
2017-04-17T01:44:45.727Z,89.60
2017-04-17T01:45:44.607Z,89.70
2017-04-17T01:46:43.488Z,89.80
2017-04-17T01:47:42.420Z,89.70
2017-04-17T01:48:41.324Z,89.70
2017-04-17T01:49:40.251Z,89.70
2017-04-17T01:50:39.160Z,89.70
2017-04-17T01:51:38.038Z,89.60
2017-04-17T01:52:36.931Z,89.80
2017-04-17T01:53:35.836Z,90.00
2017-04-17T01:54:34.755Z,90.00
2017-04-17T01:55:34.417Z,90.10
2017-04-17T01:56:33.313Z,89.80
2017-04-17T01:57:32.202Z,89.80
2017-04-17T01:58:31.111Z,89.80
2017-04-17T01:59:30.006Z,90.40
2017-04-17T02:00:28.920Z,90.00
2017-04-17T02:01:27.834Z,90.00
2017-04-17T02:02:26.725Z,90.10
2017-04-17T02:03:26.408Z,90.40
2017-04-17T02:04:25.295Z,90.00
2017-04-17T02:05:24.289Z,90.10
2017-04-17T02:06:24.095Z,90.10
2017-04-17T02:07:23.767Z,90.00
2017-04-17T02:08:22.695Z,90.10
2017-04-17T02:09:21.602Z,90.10
2017-04-17T02:10:20.494Z,90.00
2017-04-17T02:11:19.394Z,90.00
2017-04-17T02:12:19.068Z,90.00
2017-04-17T02:13:18.056Z,89.90
2017-04-17T02:14:16.994Z,90.00
2017-04-17T02:15:15.919Z,89.80
2017-04-17T02:16:15.853Z,89.70
2017-04-17T02:17:15.511Z,89.80
2017-04-17T02:18:14.437Z,89.80
2017-04-17T02:19:14.156Z,89.90
2017-04-17T02:20:13.063Z,89.90
2017-04-17T02:21:11.971Z,89.90
2017-04-17T02:22:10.850Z,89.90
2017-04-17T02:23:09.768Z,89.70
2017-04-17T02:24:08.699Z,89.70
2017-04-17T02:25:07.631Z,89.70
2017-04-17T02:26:06.557Z,89.60
2017-04-17T02:27:05.452Z,89.70
2017-04-17T02:28:04.359Z,89.70
2017-04-17T02:29:03.255Z,89.50
2017-04-17T02:30:02.152Z,89.50
2017-04-17T02:31:01.107Z,89.50
2017-04-17T02:32:00.775Z,89.50
2017-04-17T02:32:59.688Z,89.20
2017-04-17T02:33:58.972Z,89.50
2017-04-17T02:34:58.595Z,89.60
2017-04-17T02:35:57.500Z,89.90
2017-04-17T02:36:56.426Z,89.90
2017-04-17T02:37:55.347Z,89.80
2017-04-17T02:38:54.277Z,89.20
2017-04-17T02:39:53.179Z,89.80
2017-04-17T02:40:52.832Z,89.90
2017-04-17T02:41:51.731Z,89.90
2017-04-17T02:42:50.653Z,90.00
2017-04-17T02:43:49.543Z,90.00
2017-04-17T02:44:48.452Z,90.00
2017-04-17T02:45:47.335Z,90.00
2017-04-17T02:46:46.247Z,90.10
2017-04-17T02:47:45.168Z,90.10
2017-04-17T02:48:44.101Z,90.20
2017-04-17T02:49:43.028Z,90.20
2017-04-17T02:50:41.952Z,90.30
2017-04-17T02:51:40.848Z,90.20
2017-04-17T02:52:39.754Z,90.20
2017-04-17T02:53:38.680Z,90.40
2017-04-17T02:54:37.645Z,90.20
2017-04-17T02:55:36.544Z,90.20
2017-04-17T02:56:35.604Z,90.20
2017-04-17T02:57:34.511Z,90.20
2017-04-17T02:58:33.424Z,90.30
2017-04-17T02:59:32.350Z,90.30
2017-04-17T03:00:31.301Z,90.40
2017-04-17T03:01:30.958Z,90.40
2017-04-17T03:02:29.887Z,90.40
2017-04-17T03:03:28.796Z,90.40
2017-04-17T03:04:27.701Z,90.40
2017-04-17T03:05:26.651Z,90.40
2017-04-17T03:06:25.661Z,90.40
2017-04-17T03:07:24.627Z,90.40
2017-04-17T03:08:23.524Z,90.40
2017-04-17T03:09:22.431Z,90.50
2017-04-17T03:10:22.055Z,90.50
2017-04-17T03:11:22.105Z,90.50
2017-04-17T03:12:21.047Z,90.50
2017-04-17T03:13:19.975Z,90.90
2017-04-17T03:14:18.909Z,90.50
2017-04-17T03:15:17.827Z,90.50
2017-04-17T03:16:16.791Z,90.50
2017-04-17T03:17:15.711Z,90.50
2017-04-17T03:18:14.651Z,90.60
2017-04-17T03:19:13.555Z,90.60
2017-04-17T03:20:12.501Z,90.70
2017-04-17T03:21:11.416Z,90.90
2017-04-17T03:22:10.329Z,90.90
2017-04-17T03:23:09.226Z,90.90
2017-04-17T03:24:08.137Z,91.30
2017-04-17T03:25:07.035Z,90.90
2017-04-17T03:26:05.935Z,91.00
2017-04-17T03:27:04.832Z,91.00
2017-04-17T03:28:03.744Z,90.90
2017-04-17T03:29:02.672Z,91.00
2017-04-17T03:30:01.611Z,91.00
2017-04-17T03:31:00.563Z,91.10
2017-04-17T03:31:59.499Z,91.10
2017-04-17T03:32:58.395Z,91.10
2017-04-17T03:33:57.304Z,91.10
2017-04-17T03:34:56.226Z,91.10
2017-04-17T03:35:55.165Z,91.10
2017-04-17T03:36:54.107Z,91.40
2017-04-17T03:37:53.004Z,91.40
2017-04-17T03:38:51.916Z,91.20
2017-04-17T03:39:50.819Z,91.20
2017-04-17T03:40:49.715Z,91.10
2017-04-17T03:41:48.671Z,91.20
2017-04-17T03:42:47.626Z,91.10
2017-04-17T03:43:46.519Z,91.10
2017-04-17T03:44:45.445Z,91.00
2017-04-17T03:45:44.331Z,91.00
2017-04-17T03:46:43.283Z,91.00
2017-04-17T03:47:42.224Z,90.90
2017-04-17T03:48:41.150Z,90.80
2017-04-17T03:49:40.059Z,90.90
2017-04-17T03:50:39.051Z,91.20
2017-04-17T03:51:37.957Z,90.90
2017-04-17T03:52:36.844Z,90.90
2017-04-17T03:53:35.793Z,90.90
2017-04-17T03:54:34.712Z,90.90
2017-04-17T03:55:33.627Z,90.90
2017-04-17T03:56:32.537Z,90.90
2017-04-17T03:57:31.431Z,90.90
2017-04-17T03:58:30.364Z,90.80
2017-04-17T03:59:29.292Z,90.70
2017-04-17T04:00:28.203Z,90.70
2017-04-17T04:01:27.124Z,90.60
2017-04-17T04:02:26.050Z,90.70
2017-04-17T04:03:25.711Z,90.60
2017-04-17T04:04:24.628Z,90.60
2017-04-17T04:05:23.548Z,90.50
2017-04-17T04:06:22.455Z,90.60
2017-04-17T04:07:21.359Z,90.60
2017-04-17T04:08:20.292Z,90.70
2017-04-17T04:09:19.213Z,90.70
2017-04-17T04:10:18.111Z,90.50
2017-04-17T04:11:17.174Z,90.70
2017-04-17T04:12:16.079Z,90.60
2017-04-17T04:13:14.979Z,90.70
2017-04-17T04:14:14.616Z,90.70
2017-04-17T04:15:13.515Z,90.80
2017-04-17T04:16:12.430Z,90.90
2017-04-17T04:17:12.076Z,90.80
2017-04-17T04:18:10.984Z,90.80
2017-04-17T04:19:09.933Z,90.80
2017-04-17T04:20:08.892Z,90.90
2017-04-17T04:21:07.771Z,90.80
2017-04-17T04:22:06.676Z,90.80
2017-04-17T04:23:05.643Z,90.80
2017-04-17T04:24:04.547Z,90.70
2017-04-17T04:25:03.496Z,90.80
2017-04-17T04:26:02.392Z,91.10
2017-04-17T04:27:01.300Z,90.70
2017-04-17T04:28:00.188Z,90.80
2017-04-17T04:28:59.111Z,90.70
2017-04-17T04:29:58.735Z,90.60
2017-04-17T04:30:57.629Z,90.70
2017-04-17T04:31:56.522Z,90.70
2017-04-17T04:32:55.399Z,90.60
2017-04-17T04:33:54.295Z,90.60
2017-04-17T04:34:53.247Z,91.00
2017-04-17T04:35:52.152Z,90.60
2017-04-17T04:36:51.048Z,90.70
2017-04-17T04:37:49.979Z,90.80
2017-04-17T04:38:48.859Z,90.80
2017-04-17T04:39:47.751Z,90.90
2017-04-17T04:40:46.707Z,90.80
2017-04-17T04:41:45.624Z,90.70
2017-04-17T04:42:44.561Z,90.70
2017-04-17T04:43:43.452Z,90.60
2017-04-17T04:44:42.359Z,90.80
2017-04-17T04:45:41.283Z,90.90
2017-04-17T04:46:40.192Z,90.80
2017-04-17T04:47:39.100Z,90.70
2017-04-17T04:48:38.098Z,90.80
2017-04-17T04:49:36.984Z,90.80
2017-04-17T04:50:35.919Z,90.80
2017-04-17T04:51:34.801Z,90.90
2017-04-17T04:52:33.739Z,90.90
2017-04-17T04:53:32.639Z,90.90
2017-04-17T04:54:32.279Z,91.00
2017-04-17T04:55:31.173Z,91.00
2017-04-17T04:56:30.103Z,90.90
2017-04-17T04:57:29.053Z,90.70
2017-04-17T04:58:27.973Z,90.70
2017-04-17T04:59:26.985Z,90.70
2017-04-17T05:00:25.859Z,90.70
2017-04-17T05:01:24.751Z,90.60
2017-04-17T05:02:23.653Z,90.90
2017-04-17T05:03:22.586Z,90.70
2017-04-17T05:04:21.487Z,90.60
2017-04-17T05:05:20.386Z,90.60
2017-04-17T05:06:19.276Z,90.60
2017-04-17T05:07:18.182Z,90.50
2017-04-17T05:08:17.803Z,90.40
2017-04-17T05:09:16.698Z,90.60
2017-04-17T05:10:15.621Z,90.50
2017-04-17T05:11:14.541Z,90.40
2017-04-17T05:12:13.453Z,90.50
2017-04-17T05:13:12.339Z,90.40
2017-04-17T05:14:11.236Z,90.40
2017-04-17T05:15:10.165Z,90.40
2017-04-17T05:16:09.096Z,90.70
2017-04-17T05:17:08.012Z,90.30
2017-04-17T05:18:07.663Z,90.30
2017-04-17T05:19:06.572Z,90.20
2017-04-17T05:20:05.479Z,90.20
2017-04-17T05:21:04.373Z,90.10
2017-04-17T05:22:03.702Z,90.10
2017-04-17T05:23:02.642Z,90.10
2017-04-17T05:24:01.568Z,89.90
2017-04-17T05:25:00.469Z,90.10
2017-04-17T05:26:00.132Z,90.00
2017-04-17T05:26:59.015Z,90.00
2017-04-17T05:27:57.943Z,89.90
2017-04-17T05:28:57.563Z,89.80
2017-04-17T05:29:56.523Z,89.50
2017-04-17T05:30:55.495Z,89.10
2017-04-17T05:31:54.425Z,89.10
2017-04-17T05:32:53.336Z,89.20
2017-04-17T05:33:53.292Z,89.20
2017-04-17T05:34:52.188Z,89.60
2017-04-17T05:35:51.076Z,89.10
2017-04-17T05:36:49.983Z,89.00
2017-04-17T05:37:48.908Z,89.20
2017-04-17T05:38:47.824Z,88.70
2017-04-17T05:39:46.745Z,88.50
2017-04-17T05:40:45.647Z,88.70
2017-04-17T05:41:44.632Z,88.80
2017-04-17T05:42:43.534Z,88.30
2017-04-17T05:43:42.422Z,87.70
2017-04-17T05:44:41.309Z,87.80
2017-04-17T05:45:40.207Z,88.00
2017-04-17T05:46:39.120Z,87.40
2017-04-17T05:47:38.756Z,87.70
2017-04-17T05:48:37.675Z,87.40
2017-04-17T05:49:36.604Z,86.60
2017-04-17T05:50:35.505Z,87.00
2017-04-17T05:51:34.420Z,86.90
2017-04-17T05:52:33.320Z,87.00
2017-04-17T05:53:32.952Z,86.80
2017-04-17T05:54:31.829Z,86.40
2017-04-17T05:55:30.731Z,86.20
2017-04-17T05:56:29.603Z,86.00
2017-04-17T05:57:28.496Z,85.90
2017-04-17T05:58:27.368Z,85.40
2017-04-17T05:59:26.262Z,85.00
2017-04-17T06:00:25.172Z,85.10
2017-04-17T06:01:24.060Z,85.50
2017-04-17T06:02:23.691Z,85.00
2017-04-17T06:03:22.664Z,84.10
2017-04-17T06:04:21.557Z,83.30
2017-04-17T06:05:20.735Z,82.70
2017-04-17T06:06:19.633Z,82.60
2017-04-17T06:07:18.540Z,82.20
2017-04-17T06:08:17.448Z,82.50
2017-04-17T06:09:17.116Z,82.60
2017-04-17T06:10:16.038Z,82.00
2017-04-17T06:11:15.679Z,82.20
2017-04-17T06:12:14.587Z,82.40
2017-04-17T06:13:13.484Z,82.10
2017-04-17T06:14:12.375Z,82.00
2017-04-17T06:15:12.039Z,81.60
2017-04-17T06:17:10.345Z,81.40
2017-04-17T06:18:09.963Z,81.90
2017-04-17T06:19:08.859Z,81.30
2017-04-17T06:20:07.783Z,81.30
2017-04-17T06:21:06.720Z,81.00
2017-04-17T06:22:05.625Z,80.80
2017-04-17T06:23:04.508Z,80.70
2017-04-17T06:24:03.428Z,80.20
2017-04-17T06:25:03.067Z,80.70
2017-04-17T06:26:01.959Z,81.30
2017-04-17T06:27:00.864Z,80.50
2017-04-17T06:27:59.815Z,80.90
2017-04-17T06:28:58.811Z,80.10
2017-04-17T06:29:57.705Z,80.30
2017-04-17T06:30:56.677Z,80.30
2017-04-17T06:31:55.585Z,79.70
2017-04-17T06:32:54.507Z,80.50
2017-04-17T06:33:53.399Z,80.90
2017-04-17T06:34:52.296Z,79.90
2017-04-17T06:35:51.194Z,80.30
2017-04-17T06:36:50.108Z,80.70
2017-04-17T06:37:49.011Z,81.00
2017-04-17T06:38:48.055Z,80.70
2017-04-17T06:39:47.711Z,79.80
2017-04-17T06:40:47.107Z,80.20
2017-04-17T06:41:46.036Z,80.10
2017-04-17T06:42:44.962Z,79.00
2017-04-17T06:43:43.855Z,79.60
2017-04-17T06:44:42.771Z,79.90
2017-04-17T06:45:41.716Z,79.70
2017-04-17T06:46:40.630Z,79.90
2017-04-17T06:47:39.535Z,79.80
2017-04-17T06:48:38.460Z,79.50
2017-04-17T06:49:37.372Z,79.50
2017-04-17T06:50:36.356Z,79.40
2017-04-17T06:51:35.257Z,79.50
2017-04-17T06:52:34.151Z,79.30
2017-04-17T06:53:33.277Z,79.50
2017-04-17T06:54:32.195Z,78.50
2017-04-17T06:55:32.051Z,78.90
2017-04-17T06:56:31.027Z,78.70
2017-04-17T06:57:29.944Z,78.20
2017-04-17T06:58:28.824Z,78.10
2017-04-17T06:59:27.729Z,77.80
2017-04-17T07:00:26.643Z,78.30
2017-04-17T07:01:25.543Z,78.50
2017-04-17T07:02:26.507Z,78.20
2017-04-17T07:03:26.148Z,78.60
2017-04-17T07:04:25.037Z,78.50
2017-04-17T07:05:24.686Z,78.30
2017-04-17T07:06:23.587Z,78.60
2017-04-17T07:07:22.508Z,78.80
2017-04-17T07:08:21.483Z,78.80
2017-04-17T07:09:20.379Z,79.00
2017-04-17T07:10:19.282Z,79.20
2017-04-17T07:11:18.219Z,79.00
2017-04-17T07:12:17.120Z,79.20
2017-04-17T07:13:15.998Z,79.00
2017-04-17T07:14:14.973Z,79.60
2017-04-17T07:15:13.943Z,78.50
2017-04-17T07:16:12.856Z,78.00
2017-04-17T07:17:11.820Z,78.40
2017-04-17T07:18:10.759Z,78.60
2017-04-17T07:19:09.668Z,78.40
2017-04-17T07:20:08.610Z,77.80
2017-04-17T07:21:07.519Z,77.70
2017-04-17T07:22:06.444Z,77.90
2017-04-17T07:23:05.364Z,77.10
2017-04-17T07:24:04.399Z,77.10
2017-04-17T07:25:03.327Z,77.30
2017-04-17T07:26:02.245Z,77.10
2017-04-17T07:27:01.146Z,77.20
2017-04-17T07:28:00.060Z,77.10
2017-04-17T07:28:59.689Z,77.30
2017-04-17T07:29:58.597Z,77.50
2017-04-17T07:30:57.530Z,77.10
2017-04-17T07:31:56.463Z,75.80
2017-04-17T07:32:55.374Z,76.20
2017-04-17T07:33:54.288Z,75.30
2017-04-17T07:34:53.215Z,75.30
2017-04-17T07:35:52.871Z,73.60
2017-04-17T07:36:51.775Z,74.50
2017-04-17T07:37:50.758Z,74.80
2017-04-17T07:38:49.699Z,75.30
2017-04-17T07:39:48.627Z,74.80
2017-04-17T07:40:47.548Z,75.30
2017-04-17T07:41:46.457Z,75.00
2017-04-17T07:42:45.534Z,75.00
2017-04-17T07:43:44.462Z,75.00
2017-04-17T07:44:43.363Z,74.70
2017-04-17T07:45:43.040Z,74.40
2017-04-17T07:46:41.952Z,74.40
2017-04-17T07:47:40.880Z,74.10
2017-04-17T07:48:39.795Z,74.10
2017-04-17T07:49:38.720Z,73.90
2017-04-17T07:50:37.629Z,73.10
2017-04-17T07:51:36.552Z,72.80
2017-04-17T07:52:36.191Z,70.40
2017-04-17T07:53:35.105Z,71.80
2017-04-17T07:54:34.003Z,71.90
2017-04-17T07:55:33.651Z,71.20
2017-04-17T07:56:32.582Z,71.50
2017-04-17T07:57:32.375Z,72.10
2017-04-17T07:58:31.287Z,72.70
2017-04-17T07:59:30.179Z,70.40
2017-04-17T08:00:29.075Z,69.20
2017-04-17T08:01:27.999Z,70.00
2017-04-17T08:02:26.947Z,70.00
2017-04-17T08:03:25.881Z,70.40
2017-04-17T08:04:25.021Z,71.50
2017-04-17T08:05:23.946Z,71.50
2017-04-17T08:06:23.585Z,71.50
2017-04-17T08:07:22.555Z,71.00
2017-04-17T08:08:21.460Z,71.10
2017-04-17T08:09:20.424Z,70.20
2017-04-17T08:10:19.374Z,69.90
2017-04-17T08:11:18.298Z,69.70
2017-04-17T08:12:17.215Z,70.00
2017-04-17T08:13:16.153Z,70.40
2017-04-17T08:14:15.052Z,70.40
2017-04-17T08:15:13.969Z,70.40
2017-04-17T08:16:13.605Z,70.30
2017-04-17T08:17:12.509Z,69.80
2017-04-17T08:18:11.487Z,70.00
2017-04-17T08:19:10.424Z,70.50
2017-04-17T08:20:09.332Z,70.30
2017-04-17T08:21:08.238Z,70.70
2017-04-17T08:22:07.151Z,70.20
2017-04-17T08:23:06.051Z,69.80
2017-04-17T08:24:04.987Z,68.50
2017-04-17T08:25:03.911Z,68.60
2017-04-17T08:26:02.940Z,68.20
2017-04-17T08:27:01.917Z,68.30
2017-04-17T08:28:00.877Z,68.40
2017-04-17T08:28:59.827Z,68.80
2017-04-17T08:29:59.496Z,69.10
2017-04-17T08:30:58.401Z,69.20
2017-04-17T08:31:58.032Z,69.20
2017-04-17T08:32:57.002Z,66.40
2017-04-17T08:33:55.877Z,66.40
2017-04-17T08:34:54.814Z,65.10
2017-04-17T08:35:53.712Z,64.80
2017-04-17T08:37:52.027Z,63.30
2017-04-17T08:38:50.944Z,62.90
2017-04-17T08:39:49.848Z,62.70
2017-04-17T08:40:48.744Z,61.40
2017-04-17T08:41:47.653Z,61.50
2017-04-17T08:42:46.607Z,61.50
2017-04-17T08:43:46.247Z,60.60
2017-04-17T08:44:45.179Z,61.10
2017-04-17T08:45:44.814Z,60.30
2017-04-17T08:46:43.739Z,59.40
2017-04-17T08:47:42.692Z,58.70
2017-04-17T08:48:41.608Z,57.40
2017-04-17T08:49:40.475Z,58.00
2017-04-17T08:50:39.552Z,58.40
2017-04-17T08:51:38.481Z,58.90
2017-04-17T08:52:37.364Z,58.90
2017-04-17T08:53:36.319Z,58.40
2017-04-17T08:54:35.251Z,58.80
2017-04-17T08:55:34.169Z,58.60
2017-04-17T08:56:33.052Z,59.10
2017-04-17T08:58:31.491Z,58.90
2017-04-17T08:59:30.453Z,59.00
2017-04-17T09:00:29.371Z,58.90
2017-04-17T09:01:28.299Z,58.80
2017-04-17T09:02:27.943Z,57.90
2017-04-17T09:03:26.851Z,58.60
2017-04-17T09:04:25.756Z,58.80
2017-04-17T09:05:25.518Z,58.90
2017-04-17T09:06:24.467Z,59.10
2017-04-17T09:07:23.382Z,57.90
2017-04-17T09:08:22.320Z,58.70
2017-04-17T09:09:21.219Z,58.60
2017-04-17T09:10:20.172Z,58.90
2017-04-17T09:11:19.207Z,58.70
2017-04-17T09:12:18.143Z,58.10
2017-04-17T09:13:17.040Z,57.10
2017-04-17T09:14:15.944Z,56.70
2017-04-17T09:15:14.889Z,56.10
2017-04-17T09:16:13.915Z,56.40
2017-04-17T09:17:12.834Z,56.60
2017-04-17T09:18:11.812Z,55.50
2017-04-17T09:19:10.727Z,55.30
2017-04-17T09:20:09.701Z,54.10
2017-04-17T09:21:08.596Z,53.30
2017-04-17T09:22:07.507Z,53.80
2017-04-17T09:23:06.403Z,54.30
2017-04-17T09:24:06.099Z,54.60
2017-04-17T09:25:04.995Z,55.20
2017-04-17T09:26:03.886Z,54.60
2017-04-17T09:27:03.535Z,54.80
2017-04-17T09:28:02.411Z,55.00
2017-04-17T09:29:01.293Z,55.20
2017-04-17T09:30:00.230Z,54.70
2017-04-17T09:30:59.111Z,54.60
2017-04-17T09:31:58.007Z,54.30
2017-04-17T09:32:56.923Z,55.40
2017-04-17T09:33:55.825Z,55.80
2017-04-17T09:34:54.743Z,55.20
2017-04-17T09:35:53.880Z,55.50
2017-04-17T09:36:52.852Z,55.30
2017-04-17T09:37:51.914Z,55.20
2017-04-17T09:38:50.840Z,55.50
2017-04-17T09:39:49.749Z,55.40
2017-04-17T09:40:48.644Z,55.20
2017-04-17T09:41:47.547Z,55.00
2017-04-17T09:42:46.480Z,55.20
2017-04-17T09:43:46.124Z,55.20
2017-04-17T09:44:45.011Z,54.40
2017-04-17T09:45:43.903Z,54.40
2017-04-17T09:46:42.816Z,54.10
2017-04-17T09:47:42.510Z,54.10
2017-04-17T09:48:41.426Z,53.70
2017-04-17T09:49:40.331Z,53.70
2017-04-17T09:50:39.239Z,53.50
2017-04-17T09:51:38.118Z,54.50
2017-04-17T09:52:37.133Z,54.60
2017-04-17T09:53:37.932Z,54.70
2017-04-17T09:54:38.567Z,55.10
2017-04-17T09:55:38.943Z,54.80
2017-04-17T09:56:38.975Z,55.00
2017-04-17T09:57:39.011Z,55.90
2017-04-17T09:58:39.159Z,55.80
2017-04-17T09:59:39.828Z,55.80
2017-04-17T10:00:39.594Z,56.10
2017-04-17T10:01:39.909Z,56.60
2017-04-17T10:02:39.944Z,56.50
2017-04-17T10:03:40.287Z,56.70
2017-04-17T10:04:40.815Z,57.00
2017-04-17T10:05:40.744Z,59.50
2017-04-17T10:06:41.191Z,60.70
2017-04-17T10:07:42.236Z,61.70
2017-04-17T10:08:42.630Z,62.00
2017-04-17T10:09:42.520Z,62.50
2017-04-17T10:10:43.315Z,63.20
2017-04-17T10:11:43.387Z,61.70
2017-04-17T10:12:43.528Z,62.40
2017-04-17T10:13:43.698Z,61.90
2017-04-17T10:14:43.840Z,62.20
2017-04-17T10:15:44.266Z,63.70
2017-04-17T10:16:44.147Z,64.10
2017-04-17T10:17:44.883Z,64.30
2017-04-17T10:18:45.409Z,64.50
2017-04-17T10:19:45.647Z,66.00
2017-04-17T10:20:46.173Z,66.50
2017-04-17T10:21:45.976Z,66.40
2017-04-17T10:22:47.378Z,67.20
2017-04-17T10:24:47.613Z,65.60
2017-04-17T10:25:48.117Z,64.40
2017-04-17T10:26:48.567Z,64.50
2017-04-17T10:27:48.813Z,63.80
2017-04-17T10:28:49.791Z,64.20
2017-04-17T10:29:51.149Z,65.60
2017-04-17T10:30:51.474Z,65.00
2017-04-17T10:31:51.981Z,65.00
2017-04-17T10:32:53.154Z,64.40
2017-04-17T10:33:53.704Z,63.50
2017-04-17T10:34:53.235Z,62.50
2017-04-17T10:35:53.132Z,62.80
2017-04-17T10:36:53.033Z,61.20
2017-04-17T10:37:52.738Z,60.60
2017-04-17T10:38:52.976Z,60.20
2017-04-17T10:39:52.779Z,59.00
2017-04-17T10:40:53.067Z,59.40
2017-04-17T10:41:53.246Z,59.30
2017-04-17T10:42:53.941Z,58.60
2017-04-17T10:43:54.578Z,57.50
2017-04-17T10:44:55.386Z,57.40
2017-04-17T10:45:55.388Z,58.20
2017-04-17T10:46:55.251Z,57.10
2017-04-17T10:47:55.625Z,57.00
2017-04-17T10:48:56.410Z,57.30
2017-04-17T10:49:56.578Z,55.80
2017-04-17T10:50:57.669Z,56.60
2017-04-17T10:51:57.944Z,56.70
2017-04-17T10:52:57.718Z,55.90
2017-04-17T10:53:57.979Z,56.60
2017-04-17T10:54:58.652Z,56.50
2017-04-17T10:55:58.761Z,56.70
2017-04-17T10:56:59.058Z,57.00
2017-04-17T10:57:58.702Z,56.40
2017-04-17T10:58:58.992Z,55.40
2017-04-17T10:59:59.536Z,55.30
2017-04-17T11:00:59.704Z,55.70
2017-04-17T11:02:00.056Z,55.50
2017-04-17T11:02:59.749Z,55.30
2017-04-17T11:03:58.700Z,54.40
2017-04-17T11:04:57.626Z,54.90
2017-04-17T11:05:56.563Z,54.60
2017-04-17T11:06:55.482Z,55.30
2017-04-17T11:07:54.387Z,56.10
2017-04-17T11:08:53.279Z,55.70
2017-04-17T11:09:52.931Z,55.70
2017-04-17T11:10:51.828Z,56.30
2017-04-17T11:11:50.768Z,56.40
2017-04-17T11:12:49.663Z,57.00
2017-04-17T11:13:48.556Z,57.20
2017-04-17T11:14:47.528Z,57.30
2017-04-17T11:15:46.471Z,56.60
2017-04-17T11:16:46.156Z,56.30
2017-04-17T11:17:45.142Z,57.70
2017-04-17T11:18:44.196Z,57.70
2017-04-17T11:19:43.112Z,57.20
2017-04-17T11:20:42.744Z,56.30
2017-04-17T11:21:41.686Z,57.50
2017-04-17T11:22:40.623Z,57.20
2017-04-17T11:23:39.539Z,56.80
2017-04-17T11:24:38.438Z,56.70
2017-04-17T11:25:37.423Z,57.10
2017-04-17T11:26:37.062Z,56.70
2017-04-17T11:27:36.027Z,56.90
2017-04-17T11:28:35.098Z,57.30
2017-04-17T11:29:33.995Z,57.50
2017-04-17T11:30:32.900Z,57.50
2017-04-17T11:31:31.820Z,57.20
2017-04-17T11:32:30.772Z,57.30
2017-04-17T11:33:29.647Z,56.50
2017-04-17T11:34:28.551Z,56.10
2017-04-17T11:35:27.475Z,55.60
2017-04-17T11:36:26.391Z,56.10
2017-04-17T11:37:25.320Z,56.20
2017-04-17T11:38:24.256Z,56.40
2017-04-17T11:39:23.236Z,55.80
2017-04-17T11:40:22.135Z,55.50
2017-04-17T11:41:21.200Z,55.80
2017-04-17T11:42:20.127Z,55.80
2017-04-17T11:44:58.912Z,55.50
2017-04-17T11:45:57.842Z,54.10
2017-04-17T11:46:56.752Z,54.00
2017-04-17T11:47:55.657Z,53.80
2017-04-17T11:48:54.608Z,53.50
2017-04-17T11:49:53.508Z,53.70
2017-04-17T11:50:52.430Z,54.10
2017-04-17T11:51:51.335Z,53.10
2017-04-17T11:52:50.279Z,52.70
2017-04-17T11:53:49.197Z,52.90
2017-04-17T11:54:48.109Z,52.80
2017-04-17T11:55:47.016Z,52.90
2017-04-17T11:56:46.694Z,52.70
2017-04-17T11:57:45.600Z,52.40
2017-04-17T11:58:44.672Z,52.00
2017-04-17T11:59:43.571Z,52.30
2017-04-17T12:00:42.487Z,51.90
2017-04-17T12:01:41.435Z,51.10
2017-04-17T12:02:41.097Z,51.40
2017-04-17T12:03:39.996Z,51.80
2017-04-17T12:04:38.944Z,51.90
2017-04-17T12:05:37.852Z,51.40
2017-04-17T12:06:36.901Z,51.40
2017-04-17T12:07:35.885Z,50.80
2017-04-17T12:08:34.828Z,51.20
2017-04-17T12:09:33.739Z,50.80
2017-04-17T12:10:32.695Z,51.10
2017-04-17T12:11:32.331Z,51.30
2017-04-17T12:12:31.435Z,50.00
2017-04-17T12:13:30.410Z,51.00
2017-04-17T12:14:29.338Z,51.10
2017-04-17T12:15:28.248Z,50.80
2017-04-17T12:16:27.200Z,51.80
2017-04-17T12:17:26.877Z,52.60
2017-04-17T12:18:25.814Z,53.70
2017-04-17T12:19:24.783Z,53.70
2017-04-17T12:20:23.765Z,53.70
2017-04-17T12:21:22.707Z,53.00
2017-04-17T12:22:21.666Z,51.50
2017-04-17T12:23:20.678Z,51.10
2017-04-17T12:24:19.657Z,50.00
2017-04-17T12:25:18.625Z,49.40
2017-04-17T12:26:17.552Z,49.20
2017-04-17T12:27:16.542Z,48.60
2017-04-17T12:28:15.462Z,49.40
2017-04-17T12:29:14.466Z,49.50
2017-04-17T12:30:14.112Z,50.10
2017-04-17T12:31:13.246Z,53.10
2017-04-17T12:32:12.148Z,54.90
2017-04-17T12:33:11.800Z,56.20
2017-04-17T12:34:10.732Z,57.70
2017-04-17T12:35:09.639Z,58.90
2017-04-17T12:36:08.657Z,60.00
2017-04-17T12:37:07.742Z,60.10
2017-04-17T12:38:06.639Z,61.10
2017-04-17T12:39:06.496Z,61.40
2017-04-17T12:40:05.437Z,60.90
2017-04-17T12:41:04.353Z,60.00
2017-04-17T12:42:03.323Z,60.00
2017-04-17T12:43:02.232Z,59.50
2017-04-17T12:44:01.156Z,59.00
2017-04-17T12:45:00.078Z,58.70
2017-04-17T12:45:59.088Z,57.80
2017-04-17T12:46:58.012Z,57.80